sensor_id;sensor_type;location;lat;lon;timestamp;P1;durP1;ratioP1;P2;durP2;ratioP2
8050;SDS011;4068;42.158;24.732;2023-03-22T00:00:23;41.55;;;19.70;;
8050;SDS011;4068;42.158;24.732;2023-03-22T00:02:51;40.25;;;21.05;;
8050;SDS011;4068;42.158;24.732;2023-03-22T00:05:17;39.08;;;18.70;;
8050;SDS011;4068;42.158;24.732;2023-03-22T00:07:43;37.13;;;20.27;;
8050;SDS011;4068;42.158;24.732;2023-03-22T00:10:08;40.03;;;20.05;;
8050;SDS011;4068;42.158;24.732;2023-03-22T00:12:35;37.47;;;20.25;;
8050;SDS011;4068;42.158;24.732;2023-03-22T00:15:00;40.88;;;21.13;;
8050;SDS011;4068;42.158;24.732;2023-03-22T00:17:26;41.63;;;21.52;;
8050;SDS011;4068;42.158;24.732;2023-03-22T00:19:52;41.30;;;21.63;;
8050;SDS011;4068;42.158;24.732;2023-03-22T00:22:18;42.70;;;22.75;;
8050;SDS011;4068;42.158;24.732;2023-03-22T00:24:44;45.05;;;23.52;;
8050;SDS011;4068;42.158;24.732;2023-03-22T00:27:10;43.58;;;23.27;;
8050;SDS011;4068;42.158;24.732;2023-03-22T00:29:35;42.13;;;22.55;;
8050;SDS011;4068;42.158;24.732;2023-03-22T00:32:01;42.85;;;22.95;;
8050;SDS011;4068;42.158;24.732;2023-03-22T00:34:31;46.78;;;23.20;;
8050;SDS011;4068;42.158;24.732;2023-03-22T00:36:57;48.15;;;22.98;;
8050;SDS011;4068;42.158;24.732;2023-03-22T00:39:23;48.10;;;24.10;;
8050;SDS011;4068;42.158;24.732;2023-03-22T00:41:48;48.17;;;24.08;;
8050;SDS011;4068;42.158;24.732;2023-03-22T00:44:15;43.35;;;22.80;;
8050;SDS011;4068;42.158;24.732;2023-03-22T00:46:40;46.17;;;23.35;;
8050;SDS011;4068;42.158;24.732;2023-03-22T00:49:05;51.45;;;23.30;;
8050;SDS011;4068;42.158;24.732;2023-03-22T00:51:31;41.28;;;22.30;;
8050;SDS011;4068;42.158;24.732;2023-03-22T00:53:56;42.30;;;23.45;;
8050;SDS011;4068;42.158;24.732;2023-03-22T00:56:22;43.00;;;22.00;;
8050;SDS011;4068;42.158;24.732;2023-03-22T00:58:49;38.53;;;21.88;;
8050;SDS011;4068;42.158;24.732;2023-03-22T01:01:15;43.92;;;22.75;;
8050;SDS011;4068;42.158;24.732;2023-03-22T01:03:41;42.55;;;22.15;;
8050;SDS011;4068;42.158;24.732;2023-03-22T01:06:08;47.47;;;22.63;;
8050;SDS011;4068;42.158;24.732;2023-03-22T01:08:33;40.20;;;22.40;;
8050;SDS011;4068;42.158;24.732;2023-03-22T01:11:03;47.03;;;22.70;;
8050;SDS011;4068;42.158;24.732;2023-03-22T01:13:30;47.13;;;22.73;;
8050;SDS011;4068;42.158;24.732;2023-03-22T01:15:55;39.30;;;20.65;;
8050;SDS011;4068;42.158;24.732;2023-03-22T01:18:21;37.85;;;21.52;;
8050;SDS011;4068;42.158;24.732;2023-03-22T01:20:46;39.95;;;21.92;;
8050;SDS011;4068;42.158;24.732;2023-03-22T01:23:12;39.33;;;20.20;;
8050;SDS011;4068;42.158;24.732;2023-03-22T01:25:37;46.13;;;21.90;;
8050;SDS011;4068;42.158;24.732;2023-03-22T01:28:03;37.97;;;20.30;;
8050;SDS011;4068;42.158;24.732;2023-03-22T01:30:30;36.13;;;20.30;;
8050;SDS011;4068;42.158;24.732;2023-03-22T01:32:56;42.08;;;21.63;;
8050;SDS011;4068;42.158;24.732;2023-03-22T01:35:22;38.22;;;20.67;;
8050;SDS011;4068;42.158;24.732;2023-03-22T01:37:47;37.50;;;20.88;;
8050;SDS011;4068;42.158;24.732;2023-03-22T01:40:13;37.17;;;20.23;;
8050;SDS011;4068;42.158;24.732;2023-03-22T01:42:39;40.47;;;21.40;;
8050;SDS011;4068;42.158;24.732;2023-03-22T01:47:47;39.70;;;21.77;;
8050;SDS011;4068;42.158;24.732;2023-03-22T01:50:18;43.25;;;22.40;;
8050;SDS011;4068;42.158;24.732;2023-03-22T01:52:44;36.25;;;21.25;;
8050;SDS011;4068;42.158;24.732;2023-03-22T01:55:11;41.70;;;21.88;;
8050;SDS011;4068;42.158;24.732;2023-03-22T01:57:37;42.00;;;19.73;;
8050;SDS011;4068;42.158;24.732;2023-03-22T02:00:08;35.05;;;18.60;;
8050;SDS011;4068;42.158;24.732;2023-03-22T02:02:40;41.95;;;20.60;;
8050;SDS011;4068;42.158;24.732;2023-03-22T02:05:07;40.25;;;18.85;;
8050;SDS011;4068;42.158;24.732;2023-03-22T02:07:33;31.52;;;18.13;;
8050;SDS011;4068;42.158;24.732;2023-03-22T02:10:01;35.90;;;19.33;;
8050;SDS011;4068;42.158;24.732;2023-03-22T02:35:32;35.63;;;19.60;;
8050;SDS011;4068;42.158;24.732;2023-03-22T02:41:05;33.17;;;19.80;;
8050;SDS011;4068;42.158;24.732;2023-03-22T02:46:44;38.35;;;19.73;;
8050;SDS011;4068;42.158;24.732;2023-03-22T02:51:45;43.42;;;19.63;;
8050;SDS011;4068;42.158;24.732;2023-03-22T02:54:21;35.58;;;19.42;;
8050;SDS011;4068;42.158;24.732;2023-03-22T02:57:54;40.70;;;20.67;;
8050;SDS011;4068;42.158;24.732;2023-03-22T02:59:48;41.22;;;19.92;;
8050;SDS011;4068;42.158;24.732;2023-03-22T03:02:16;38.28;;;19.70;;
8050;SDS011;4068;42.158;24.732;2023-03-22T03:04:44;34.33;;;19.98;;
8050;SDS011;4068;42.158;24.732;2023-03-22T03:07:13;40.33;;;19.50;;
8050;SDS011;4068;42.158;24.732;2023-03-22T03:09:42;34.20;;;19.73;;
8050;SDS011;4068;42.158;24.732;2023-03-22T03:12:18;35.70;;;18.73;;
8050;SDS011;4068;42.158;24.732;2023-03-22T03:14:45;37.90;;;19.83;;
8050;SDS011;4068;42.158;24.732;2023-03-22T03:36:33;40.45;;;19.85;;
8050;SDS011;4068;42.158;24.732;2023-03-22T03:39:03;37.67;;;20.05;;
8050;SDS011;4068;42.158;24.732;2023-03-22T03:41:33;35.65;;;20.88;;
8050;SDS011;4068;42.158;24.732;2023-03-22T03:44:00;37.13;;;21.20;;
8050;SDS011;4068;42.158;24.732;2023-03-22T03:46:26;35.30;;;20.50;;
8050;SDS011;4068;42.158;24.732;2023-03-22T03:48:53;35.72;;;21.27;;
8050;SDS011;4068;42.158;24.732;2023-03-22T03:51:21;35.75;;;20.38;;
8050;SDS011;4068;42.158;24.732;2023-03-22T03:53:46;36.45;;;21.17;;
8050;SDS011;4068;42.158;24.732;2023-03-22T03:56:12;35.17;;;19.80;;
8050;SDS011;4068;42.158;24.732;2023-03-22T03:58:38;38.17;;;20.83;;
8050;SDS011;4068;42.158;24.732;2023-03-22T04:01:03;36.50;;;20.90;;
8050;SDS011;4068;42.158;24.732;2023-03-22T04:03:30;33.95;;;20.67;;
8050;SDS011;4068;42.158;24.732;2023-03-22T04:05:55;38.92;;;22.02;;
8050;SDS011;4068;42.158;24.732;2023-03-22T04:08:21;34.88;;;21.50;;
8050;SDS011;4068;42.158;24.732;2023-03-22T04:10:50;35.75;;;21.40;;
8050;SDS011;4068;42.158;24.732;2023-03-22T04:13:16;35.40;;;20.33;;
8050;SDS011;4068;42.158;24.732;2023-03-22T04:15:45;38.85;;;20.55;;
8050;SDS011;4068;42.158;24.732;2023-03-22T04:18:11;35.53;;;19.42;;
8050;SDS011;4068;42.158;24.732;2023-03-22T04:20:36;32.63;;;19.67;;
8050;SDS011;4068;42.158;24.732;2023-03-22T04:23:06;35.88;;;20.08;;
8050;SDS011;4068;42.158;24.732;2023-03-22T04:25:35;29.80;;;18.33;;
8050;SDS011;4068;42.158;24.732;2023-03-22T04:28:02;34.22;;;20.13;;
8050;SDS011;4068;42.158;24.732;2023-03-22T04:30:28;31.17;;;18.60;;
8050;SDS011;4068;42.158;24.732;2023-03-22T04:32:54;31.88;;;18.70;;
8050;SDS011;4068;42.158;24.732;2023-03-22T04:35:21;33.40;;;18.55;;
8050;SDS011;4068;42.158;24.732;2023-03-22T04:37:47;31.00;;;17.65;;
8050;SDS011;4068;42.158;24.732;2023-03-22T04:40:13;32.10;;;18.23;;
8050;SDS011;4068;42.158;24.732;2023-03-22T04:42:45;32.60;;;18.98;;
8050;SDS011;4068;42.158;24.732;2023-03-22T04:45:11;34.17;;;19.50;;
8050;SDS011;4068;42.158;24.732;2023-03-22T04:47:37;30.15;;;19.00;;
8050;SDS011;4068;42.158;24.732;2023-03-22T04:50:03;35.33;;;20.15;;
8050;SDS011;4068;42.158;24.732;2023-03-22T04:52:30;32.97;;;19.10;;
8050;SDS011;4068;42.158;24.732;2023-03-22T04:54:55;30.40;;;18.25;;
8050;SDS011;4068;42.158;24.732;2023-03-22T04:57:21;34.10;;;19.20;;
8050;SDS011;4068;42.158;24.732;2023-03-22T04:59:46;28.05;;;17.90;;
8050;SDS011;4068;42.158;24.732;2023-03-22T05:02:12;39.38;;;20.50;;
8050;SDS011;4068;42.158;24.732;2023-03-22T05:04:37;35.97;;;18.95;;
8050;SDS011;4068;42.158;24.732;2023-03-22T05:07:03;31.33;;;18.98;;
8050;SDS011;4068;42.158;24.732;2023-03-22T05:09:28;34.53;;;18.70;;
8050;SDS011;4068;42.158;24.732;2023-03-22T05:11:54;33.75;;;19.10;;
8050;SDS011;4068;42.158;24.732;2023-03-22T05:14:19;32.85;;;18.42;;
8050;SDS011;4068;42.158;24.732;2023-03-22T05:16:45;29.45;;;18.23;;
8050;SDS011;4068;42.158;24.732;2023-03-22T05:19:10;30.48;;;18.90;;
8050;SDS011;4068;42.158;24.732;2023-03-22T05:21:38;34.90;;;19.83;;
8050;SDS011;4068;42.158;24.732;2023-03-22T05:24:05;33.92;;;19.85;;
8050;SDS011;4068;42.158;24.732;2023-03-22T05:26:31;44.20;;;19.60;;
8050;SDS011;4068;42.158;24.732;2023-03-22T05:28:57;30.27;;;17.65;;
8050;SDS011;4068;42.158;24.732;2023-03-22T05:31:23;32.50;;;18.20;;
8050;SDS011;4068;42.158;24.732;2023-03-22T05:33:49;29.45;;;18.02;;
8050;SDS011;4068;42.158;24.732;2023-03-22T05:36:15;29.63;;;18.13;;
8050;SDS011;4068;42.158;24.732;2023-03-22T05:38:42;35.25;;;20.27;;
8050;SDS011;4068;42.158;24.732;2023-03-22T05:41:09;37.22;;;20.90;;
8050;SDS011;4068;42.158;24.732;2023-03-22T05:43:35;38.90;;;22.67;;
8050;SDS011;4068;42.158;24.732;2023-03-22T05:46:07;38.58;;;22.67;;
8050;SDS011;4068;42.158;24.732;2023-03-22T05:48:34;39.63;;;22.67;;
8050;SDS011;4068;42.158;24.732;2023-03-22T05:51:01;36.95;;;22.48;;
8050;SDS011;4068;42.158;24.732;2023-03-22T05:53:29;37.78;;;23.50;;
8050;SDS011;4068;42.158;24.732;2023-03-22T05:55:55;38.72;;;21.38;;
8050;SDS011;4068;42.158;24.732;2023-03-22T05:58:24;35.80;;;22.40;;
8050;SDS011;4068;42.158;24.732;2023-03-22T06:00:53;36.13;;;21.33;;
8050;SDS011;4068;42.158;24.732;2023-03-22T06:03:19;37.40;;;21.83;;
8050;SDS011;4068;42.158;24.732;2023-03-22T06:05:45;37.58;;;22.20;;
8050;SDS011;4068;42.158;24.732;2023-03-22T06:08:14;37.85;;;21.88;;
8050;SDS011;4068;42.158;24.732;2023-03-22T06:10:40;47.15;;;23.85;;
8050;SDS011;4068;42.158;24.732;2023-03-22T06:13:06;36.85;;;22.08;;
8050;SDS011;4068;42.158;24.732;2023-03-22T06:15:31;39.00;;;22.55;;
8050;SDS011;4068;42.158;24.732;2023-03-22T06:17:56;40.67;;;23.95;;
8050;SDS011;4068;42.158;24.732;2023-03-22T06:20:22;36.22;;;21.55;;
8050;SDS011;4068;42.158;24.732;2023-03-22T06:22:47;36.80;;;22.65;;
8050;SDS011;4068;42.158;24.732;2023-03-22T06:25:13;43.20;;;22.85;;
8050;SDS011;4068;42.158;24.732;2023-03-22T06:27:38;38.03;;;22.13;;
8050;SDS011;4068;42.158;24.732;2023-03-22T06:30:04;38.25;;;23.17;;
8050;SDS011;4068;42.158;24.732;2023-03-22T06:32:30;41.75;;;22.85;;
8050;SDS011;4068;42.158;24.732;2023-03-22T06:34:56;37.10;;;23.52;;
8050;SDS011;4068;42.158;24.732;2023-03-22T06:37:21;44.60;;;24.80;;
8050;SDS011;4068;42.158;24.732;2023-03-22T06:39:47;42.22;;;22.65;;
8050;SDS011;4068;42.158;24.732;2023-03-22T06:42:13;44.70;;;23.33;;
8050;SDS011;4068;42.158;24.732;2023-03-22T06:44:39;39.90;;;24.10;;
8050;SDS011;4068;42.158;24.732;2023-03-22T06:47:07;50.40;;;23.52;;
8050;SDS011;4068;42.158;24.732;2023-03-22T06:49:33;42.42;;;23.55;;
8050;SDS011;4068;42.158;24.732;2023-03-22T06:51:59;42.53;;;23.83;;
8050;SDS011;4068;42.158;24.732;2023-03-22T06:54:24;42.55;;;25.25;;
8050;SDS011;4068;42.158;24.732;2023-03-22T06:56:50;42.63;;;24.27;;
8050;SDS011;4068;42.158;24.732;2023-03-22T06:59:15;43.47;;;23.35;;
8050;SDS011;4068;42.158;24.732;2023-03-22T07:01:41;46.40;;;24.73;;
8050;SDS011;4068;42.158;24.732;2023-03-22T07:04:06;43.30;;;24.45;;
8050;SDS011;4068;42.158;24.732;2023-03-22T07:06:32;42.72;;;25.65;;
8050;SDS011;4068;42.158;24.732;2023-03-22T07:08:57;42.03;;;24.20;;
8050;SDS011;4068;42.158;24.732;2023-03-22T07:11:23;38.05;;;21.48;;
8050;SDS011;4068;42.158;24.732;2023-03-22T07:13:51;33.40;;;20.02;;
8050;SDS011;4068;42.158;24.732;2023-03-22T07:16:17;33.03;;;19.90;;
8050;SDS011;4068;42.158;24.732;2023-03-22T07:18:43;35.22;;;20.65;;
8050;SDS011;4068;42.158;24.732;2023-03-22T07:21:09;32.97;;;20.23;;
8050;SDS011;4068;42.158;24.732;2023-03-22T07:23:34;35.17;;;21.00;;
8050;SDS011;4068;42.158;24.732;2023-03-22T07:25:59;44.50;;;26.05;;
8050;SDS011;4068;42.158;24.732;2023-03-22T07:28:25;42.03;;;24.13;;
8050;SDS011;4068;42.158;24.732;2023-03-22T07:31:00;48.20;;;24.67;;
8050;SDS011;4068;42.158;24.732;2023-03-22T07:33:26;45.10;;;25.27;;
8050;SDS011;4068;42.158;24.732;2023-03-22T07:35:51;44.33;;;26.20;;
8050;SDS011;4068;42.158;24.732;2023-03-22T07:38:17;42.15;;;23.25;;
8050;SDS011;4068;42.158;24.732;2023-03-22T07:40:43;42.15;;;23.40;;
8050;SDS011;4068;42.158;24.732;2023-03-22T07:43:08;43.78;;;24.10;;
8050;SDS011;4068;42.158;24.732;2023-03-22T07:45:36;43.78;;;22.60;;
8050;SDS011;4068;42.158;24.732;2023-03-22T07:48:01;36.28;;;22.50;;
8050;SDS011;4068;42.158;24.732;2023-03-22T07:50:27;40.97;;;23.70;;
8050;SDS011;4068;42.158;24.732;2023-03-22T07:52:52;42.03;;;22.75;;
8050;SDS011;4068;42.158;24.732;2023-03-22T07:55:18;37.53;;;21.98;;
8050;SDS011;4068;42.158;24.732;2023-03-22T07:57:43;36.75;;;22.20;;
8050;SDS011;4068;42.158;24.732;2023-03-22T08:00:09;38.30;;;22.50;;
8050;SDS011;4068;42.158;24.732;2023-03-22T08:02:36;38.22;;;23.10;;
8050;SDS011;4068;42.158;24.732;2023-03-22T08:05:02;37.55;;;22.45;;
8050;SDS011;4068;42.158;24.732;2023-03-22T08:07:28;37.35;;;23.60;;
8050;SDS011;4068;42.158;24.732;2023-03-22T08:09:54;39.80;;;22.75;;
8050;SDS011;4068;42.158;24.732;2023-03-22T08:12:20;42.00;;;23.35;;
8050;SDS011;4068;42.158;24.732;2023-03-22T08:14:46;36.78;;;22.00;;
8050;SDS011;4068;42.158;24.732;2023-03-22T08:17:14;41.42;;;21.10;;
8050;SDS011;4068;42.158;24.732;2023-03-22T08:19:43;35.03;;;21.30;;
8050;SDS011;4068;42.158;24.732;2023-03-22T08:22:09;33.75;;;20.88;;
8050;SDS011;4068;42.158;24.732;2023-03-22T08:24:36;37.72;;;21.92;;
8050;SDS011;4068;42.158;24.732;2023-03-22T08:27:01;37.50;;;21.60;;
8050;SDS011;4068;42.158;24.732;2023-03-22T08:29:27;36.33;;;23.20;;
8050;SDS011;4068;42.158;24.732;2023-03-22T08:31:53;40.20;;;22.48;;
8050;SDS011;4068;42.158;24.732;2023-03-22T08:34:19;40.78;;;22.90;;
8050;SDS011;4068;42.158;24.732;2023-03-22T08:36:45;44.17;;;25.15;;
8050;SDS011;4068;42.158;24.732;2023-03-22T08:39:10;34.88;;;21.65;;
8050;SDS011;4068;42.158;24.732;2023-03-22T08:41:35;34.72;;;20.58;;
8050;SDS011;4068;42.158;24.732;2023-03-22T08:44:01;35.97;;;20.73;;
8050;SDS011;4068;42.158;24.732;2023-03-22T08:46:27;33.08;;;20.88;;
8050;SDS011;4068;42.158;24.732;2023-03-22T08:48:52;37.83;;;21.45;;
8050;SDS011;4068;42.158;24.732;2023-03-22T08:51:18;37.00;;;22.13;;
8050;SDS011;4068;42.158;24.732;2023-03-22T08:53:46;37.05;;;22.63;;
8050;SDS011;4068;42.158;24.732;2023-03-22T08:56:12;39.25;;;23.58;;
8050;SDS011;4068;42.158;24.732;2023-03-22T08:58:42;36.88;;;22.70;;
8050;SDS011;4068;42.158;24.732;2023-03-22T09:01:14;39.22;;;21.98;;
8050;SDS011;4068;42.158;24.732;2023-03-22T09:03:41;40.90;;;21.85;;
8050;SDS011;4068;42.158;24.732;2023-03-22T09:06:07;33.75;;;20.75;;
8050;SDS011;4068;42.158;24.732;2023-03-22T09:08:35;39.95;;;21.75;;
8050;SDS011;4068;42.158;24.732;2023-03-22T09:11:02;42.17;;;22.10;;
8050;SDS011;4068;42.158;24.732;2023-03-22T09:13:28;39.00;;;22.02;;
8050;SDS011;4068;42.158;24.732;2023-03-22T09:15:55;38.22;;;22.13;;
8050;SDS011;4068;42.158;24.732;2023-03-22T09:18:21;41.75;;;22.33;;
8050;SDS011;4068;42.158;24.732;2023-03-22T09:20:48;35.55;;;21.17;;
8050;SDS011;4068;42.158;24.732;2023-03-22T09:23:14;36.17;;;21.67;;
8050;SDS011;4068;42.158;24.732;2023-03-22T09:25:46;38.05;;;22.50;;
8050;SDS011;4068;42.158;24.732;2023-03-22T09:28:12;36.08;;;20.40;;
8050;SDS011;4068;42.158;24.732;2023-03-22T09:30:38;31.75;;;20.08;;
8050;SDS011;4068;42.158;24.732;2023-03-22T09:33:03;33.53;;;21.13;;
8050;SDS011;4068;42.158;24.732;2023-03-22T09:35:30;38.03;;;22.05;;
8050;SDS011;4068;42.158;24.732;2023-03-22T09:37:56;29.90;;;18.95;;
8050;SDS011;4068;42.158;24.732;2023-03-22T09:40:26;29.65;;;18.58;;
8050;SDS011;4068;42.158;24.732;2023-03-22T09:42:54;26.70;;;17.63;;
8050;SDS011;4068;42.158;24.732;2023-03-22T09:45:47;28.55;;;17.83;;
8050;SDS011;4068;42.158;24.732;2023-03-22T09:48:18;32.53;;;19.60;;
8050;SDS011;4068;42.158;24.732;2023-03-22T09:50:52;32.08;;;19.48;;
8050;SDS011;4068;42.158;24.732;2023-03-22T09:53:20;33.08;;;18.45;;
8050;SDS011;4068;42.158;24.732;2023-03-22T09:58:41;39.17;;;18.80;;
8050;SDS011;4068;42.158;24.732;2023-03-22T10:07:05;29.63;;;19.52;;
8050;SDS011;4068;42.158;24.732;2023-03-22T10:12:32;33.25;;;20.10;;
8050;SDS011;4068;42.158;24.732;2023-03-22T10:17:54;31.95;;;17.73;;
8050;SDS011;4068;42.158;24.732;2023-03-22T10:20:29;31.00;;;19.35;;
8050;SDS011;4068;42.158;24.732;2023-03-22T10:22:56;28.17;;;19.05;;
8050;SDS011;4068;42.158;24.732;2023-03-22T10:25:32;35.13;;;21.67;;
8050;SDS011;4068;42.158;24.732;2023-03-22T10:28:01;36.05;;;22.60;;
8050;SDS011;4068;42.158;24.732;2023-03-22T10:30:35;37.38;;;22.38;;
8050;SDS011;4068;42.158;24.732;2023-03-22T10:33:03;38.67;;;21.20;;
8050;SDS011;4068;42.158;24.732;2023-03-22T10:35:47;39.28;;;21.20;;
8050;SDS011;4068;42.158;24.732;2023-03-22T10:38:22;35.25;;;21.75;;
8050;SDS011;4068;42.158;24.732;2023-03-22T10:40:51;34.40;;;20.33;;
8050;SDS011;4068;42.158;24.732;2023-03-22T10:46:03;28.58;;;15.70;;
8050;SDS011;4068;42.158;24.732;2023-03-22T10:48:50;34.78;;;16.42;;
8050;SDS011;4068;42.158;24.732;2023-03-22T10:51:28;31.80;;;15.88;;
8050;SDS011;4068;42.158;24.732;2023-03-22T10:53:58;35.88;;;17.02;;
8050;SDS011;4068;42.158;24.732;2023-03-22T10:56:25;29.10;;;14.45;;
8050;SDS011;4068;42.158;24.732;2023-03-22T10:58:51;27.60;;;13.93;;
8050;SDS011;4068;42.158;24.732;2023-03-22T11:01:32;32.35;;;14.30;;
8050;SDS011;4068;42.158;24.732;2023-03-22T11:04:11;28.73;;;12.93;;
8050;SDS011;4068;42.158;24.732;2023-03-22T11:06:40;25.95;;;12.25;;
8050;SDS011;4068;42.158;24.732;2023-03-22T11:09:18;26.52;;;13.73;;
8050;SDS011;4068;42.158;24.732;2023-03-22T11:11:51;15.75;;;10.07;;
8050;SDS011;4068;42.158;24.732;2023-03-22T11:14:34;21.30;;;13.10;;
8050;SDS011;4068;42.158;24.732;2023-03-22T11:17:08;26.05;;;12.20;;
8050;SDS011;4068;42.158;24.732;2023-03-22T11:19:38;19.85;;;10.57;;
8050;SDS011;4068;42.158;24.732;2023-03-22T11:22:07;20.98;;;11.05;;
8050;SDS011;4068;42.158;24.732;2023-03-22T11:24:40;16.33;;;9.27;;
8050;SDS011;4068;42.158;24.732;2023-03-22T11:27:19;15.93;;;10.32;;
8050;SDS011;4068;42.158;24.732;2023-03-22T11:29:52;17.90;;;11.20;;
8050;SDS011;4068;42.158;24.732;2023-03-22T11:32:28;23.17;;;11.73;;
8050;SDS011;4068;42.158;24.732;2023-03-22T11:35:01;28.23;;;11.05;;
8050;SDS011;4068;42.158;24.732;2023-03-22T11:37:39;18.08;;;10.65;;
8050;SDS011;4068;42.158;24.732;2023-03-22T11:40:13;20.48;;;11.90;;
8050;SDS011;4068;42.158;24.732;2023-03-22T11:42:41;19.88;;;10.75;;
8050;SDS011;4068;42.158;24.732;2023-03-22T11:45:09;20.05;;;10.43;;
8050;SDS011;4068;42.158;24.732;2023-03-22T11:47:40;14.77;;;10.30;;
8050;SDS011;4068;42.158;24.732;2023-03-22T11:50:07;15.40;;;9.27;;
8050;SDS011;4068;42.158;24.732;2023-03-22T11:52:45;11.77;;;7.93;;
8050;SDS011;4068;42.158;24.732;2023-03-22T11:55:12;15.55;;;8.70;;
8050;SDS011;4068;42.158;24.732;2023-03-22T11:57:40;11.98;;;8.55;;
8050;SDS011;4068;42.158;24.732;2023-03-22T12:00:06;18.48;;;10.38;;
8050;SDS011;4068;42.158;24.732;2023-03-22T12:02:54;16.75;;;10.60;;
8050;SDS011;4068;42.158;24.732;2023-03-22T12:05:27;16.10;;;11.00;;
8050;SDS011;4068;42.158;24.732;2023-03-22T12:07:59;21.75;;;9.43;;
8050;SDS011;4068;42.158;24.732;2023-03-22T12:10:30;21.25;;;10.23;;
8050;SDS011;4068;42.158;24.732;2023-03-22T12:13:03;14.73;;;9.88;;
8050;SDS011;4068;42.158;24.732;2023-03-22T12:15:40;13.48;;;9.48;;
8050;SDS011;4068;42.158;24.732;2023-03-22T12:18:21;17.33;;;10.07;;
8050;SDS011;4068;42.158;24.732;2023-03-22T12:20:54;14.55;;;9.25;;
8050;SDS011;4068;42.158;24.732;2023-03-22T12:23:22;14.57;;;8.73;;
8050;SDS011;4068;42.158;24.732;2023-03-22T12:25:54;13.25;;;9.63;;
8050;SDS011;4068;42.158;24.732;2023-03-22T12:28:29;14.60;;;9.02;;
8050;SDS011;4068;42.158;24.732;2023-03-22T12:31:02;19.33;;;9.35;;
8050;SDS011;4068;42.158;24.732;2023-03-22T12:33:34;14.60;;;8.95;;
8050;SDS011;4068;42.158;24.732;2023-03-22T12:36:09;18.92;;;9.43;;
8050;SDS011;4068;42.158;24.732;2023-03-22T12:41:14;17.02;;;9.43;;
8050;SDS011;4068;42.158;24.732;2023-03-22T12:46:16;14.95;;;7.38;;
8050;SDS011;4068;42.158;24.732;2023-03-22T12:48:47;8.35;;;6.10;;
8050;SDS011;4068;42.158;24.732;2023-03-22T12:51:16;10.15;;;6.97;;
8050;SDS011;4068;42.158;24.732;2023-03-22T12:53:45;9.30;;;6.35;;
8050;SDS011;4068;42.158;24.732;2023-03-22T12:56:16;12.35;;;6.63;;
8050;SDS011;4068;42.158;24.732;2023-03-22T12:58:53;11.65;;;7.07;;
8050;SDS011;4068;42.158;24.732;2023-03-22T13:01:30;14.63;;;7.05;;
8050;SDS011;4068;42.158;24.732;2023-03-22T13:06:57;10.65;;;6.60;;
8050;SDS011;4068;42.158;24.732;2023-03-22T13:18:00;9.68;;;6.18;;
8050;SDS011;4068;42.158;24.732;2023-03-22T13:27:52;8.90;;;5.60;;
8050;SDS011;4068;42.158;24.732;2023-03-22T13:30:22;6.97;;;5.18;;
8050;SDS011;4068;42.158;24.732;2023-03-22T13:32:54;7.53;;;5.70;;
8050;SDS011;4068;42.158;24.732;2023-03-22T13:35:22;7.65;;;5.40;;
8050;SDS011;4068;42.158;24.732;2023-03-22T13:37:52;7.05;;;5.75;;
8050;SDS011;4068;42.158;24.732;2023-03-22T13:40:33;7.72;;;5.53;;
8050;SDS011;4068;42.158;24.732;2023-03-22T13:43:10;10.45;;;6.40;;
8050;SDS011;4068;42.158;24.732;2023-03-22T13:48:40;8.68;;;5.05;;
8050;SDS011;4068;42.158;24.732;2023-03-22T13:51:08;7.07;;;4.82;;
8050;SDS011;4068;42.158;24.732;2023-03-22T13:53:39;8.05;;;5.50;;
8050;SDS011;4068;42.158;24.732;2023-03-22T13:56:10;7.72;;;5.15;;
8050;SDS011;4068;42.158;24.732;2023-03-22T13:58:51;7.22;;;4.97;;
8050;SDS011;4068;42.158;24.732;2023-03-22T14:01:26;5.72;;;4.63;;
8050;SDS011;4068;42.158;24.732;2023-03-22T14:03:55;8.70;;;5.55;;
8050;SDS011;4068;42.158;24.732;2023-03-22T14:06:32;7.03;;;5.72;;
8050;SDS011;4068;42.158;24.732;2023-03-22T14:09:08;8.25;;;5.30;;
8050;SDS011;4068;42.158;24.732;2023-03-22T14:11:59;7.72;;;5.43;;
8050;SDS011;4068;42.158;24.732;2023-03-22T14:14:34;10.38;;;6.82;;
8050;SDS011;4068;42.158;24.732;2023-03-22T14:17:11;7.40;;;5.93;;
8050;SDS011;4068;42.158;24.732;2023-03-22T14:19:37;6.18;;;5.55;;
8050;SDS011;4068;42.158;24.732;2023-03-22T14:22:06;7.60;;;5.10;;
8050;SDS011;4068;42.158;24.732;2023-03-22T14:24:38;11.55;;;6.40;;
8050;SDS011;4068;42.158;24.732;2023-03-22T14:27:04;11.15;;;4.82;;
8050;SDS011;4068;42.158;24.732;2023-03-22T14:29:42;9.43;;;5.80;;
8050;SDS011;4068;42.158;24.732;2023-03-22T14:32:17;8.55;;;5.95;;
8050;SDS011;4068;42.158;24.732;2023-03-22T14:34:52;8.60;;;5.80;;
8050;SDS011;4068;42.158;24.732;2023-03-22T14:37:23;11.57;;;7.55;;
8050;SDS011;4068;42.158;24.732;2023-03-22T14:39:48;10.68;;;6.72;;
8050;SDS011;4068;42.158;24.732;2023-03-22T14:42:26;5.93;;;4.88;;
8050;SDS011;4068;42.158;24.732;2023-03-22T14:44:58;9.60;;;6.18;;
8050;SDS011;4068;42.158;24.732;2023-03-22T14:47:28;8.32;;;5.95;;
8050;SDS011;4068;42.158;24.732;2023-03-22T14:50:02;9.65;;;5.45;;
8050;SDS011;4068;42.158;24.732;2023-03-22T14:52:30;6.53;;;5.63;;
8050;SDS011;4068;42.158;24.732;2023-03-22T14:54:59;8.48;;;5.68;;
8050;SDS011;4068;42.158;24.732;2023-03-22T14:57:28;10.30;;;5.93;;
8050;SDS011;4068;42.158;24.732;2023-03-22T14:59:57;12.32;;;5.95;;
8050;SDS011;4068;42.158;24.732;2023-03-22T15:02:36;13.13;;;6.60;;
8050;SDS011;4068;42.158;24.732;2023-03-22T15:05:06;13.18;;;6.78;;
8050;SDS011;4068;42.158;24.732;2023-03-22T15:07:50;8.45;;;5.47;;
8050;SDS011;4068;42.158;24.732;2023-03-22T15:10:17;8.55;;;6.15;;
8050;SDS011;4068;42.158;24.732;2023-03-22T15:12:43;10.63;;;6.63;;
8050;SDS011;4068;42.158;24.732;2023-03-22T15:15:11;8.80;;;6.57;;
8050;SDS011;4068;42.158;24.732;2023-03-22T15:17:38;17.33;;;9.10;;
8050;SDS011;4068;42.158;24.732;2023-03-22T15:20:06;19.27;;;11.02;;
8050;SDS011;4068;42.158;24.732;2023-03-22T15:22:33;21.65;;;12.80;;
8050;SDS011;4068;42.158;24.732;2023-03-22T15:25:02;32.97;;;11.95;;
8050;SDS011;4068;42.158;24.732;2023-03-22T15:27:29;26.50;;;13.20;;
8050;SDS011;4068;42.158;24.732;2023-03-22T15:29:56;21.70;;;13.32;;
8050;SDS011;4068;42.158;24.732;2023-03-22T15:32:23;25.83;;;14.45;;
8050;SDS011;4068;42.158;24.732;2023-03-22T15:34:51;30.55;;;14.82;;
8050;SDS011;4068;42.158;24.732;2023-03-22T15:37:28;29.35;;;13.80;;
8050;SDS011;4068;42.158;24.732;2023-03-22T15:39:58;27.25;;;13.43;;
8050;SDS011;4068;42.158;24.732;2023-03-22T15:42:35;29.25;;;14.38;;
8050;SDS011;4068;42.158;24.732;2023-03-22T15:45:17;26.13;;;14.63;;
8050;SDS011;4068;42.158;24.732;2023-03-22T15:47:51;35.42;;;14.82;;
8050;SDS011;4068;42.158;24.732;2023-03-22T15:50:21;27.55;;;14.00;;
8050;SDS011;4068;42.158;24.732;2023-03-22T15:55:18;20.40;;;12.68;;
8050;SDS011;4068;42.158;24.732;2023-03-22T15:57:56;18.83;;;12.13;;
8050;SDS011;4068;42.158;24.732;2023-03-22T16:00:35;25.23;;;12.45;;
8050;SDS011;4068;42.158;24.732;2023-03-22T16:05:31;27.10;;;14.57;;
8050;SDS011;4068;42.158;24.732;2023-03-22T16:07:57;38.63;;;15.05;;
8050;SDS011;4068;42.158;24.732;2023-03-22T16:10:25;25.00;;;14.38;;
8050;SDS011;4068;42.158;24.732;2023-03-22T16:12:51;25.92;;;15.27;;
8050;SDS011;4068;42.158;24.732;2023-03-22T16:15:26;35.13;;;15.43;;
8050;SDS011;4068;42.158;24.732;2023-03-22T16:17:55;35.75;;;16.02;;
8050;SDS011;4068;42.158;24.732;2023-03-22T16:20:22;41.33;;;15.43;;
8050;SDS011;4068;42.158;24.732;2023-03-22T16:22:58;35.58;;;16.48;;
8050;SDS011;4068;42.158;24.732;2023-03-22T16:25:26;23.67;;;14.50;;
8050;SDS011;4068;42.158;24.732;2023-03-22T16:27:52;24.90;;;15.73;;
8050;SDS011;4068;42.158;24.732;2023-03-22T16:30:18;23.20;;;14.85;;